地図

経路データ

SID SEASON NUMBER BASIN SUBBASIN NAME ISO_TIME NATURE LAT LON WMO_WIND WMO_PRES WMO_AGENCY TRACK_TYPE DIST2LAND LANDFALL IFLAG USA_AGENCY USA_ATCF_ID USA_LAT USA_LON USA_RECORD USA_STATUS USA_WIND USA_PRES USA_SSHS USA_R34_NE USA_R34_SE USA_R34_SW USA_R34_NW USA_R50_NE USA_R50_SE USA_R50_SW USA_R50_NW USA_R64_NE USA_R64_SE USA_R64_SW USA_R64_NW USA_POCI USA_ROCI USA_RMW USA_EYE TOKYO_LAT TOKYO_LON TOKYO_GRADE TOKYO_WIND TOKYO_PRES TOKYO_R50_DIR TOKYO_R50_LONG TOKYO_R50_SHORT TOKYO_R30_DIR TOKYO_R30_LONG TOKYO_R30_SHORT TOKYO_LAND CMA_LAT CMA_LON CMA_CAT CMA_WIND CMA_PRES HKO_LAT HKO_LON HKO_CAT HKO_WIND HKO_PRES NEWDELHI_LAT NEWDELHI_LON NEWDELHI_GRADE NEWDELHI_WIND NEWDELHI_PRES NEWDELHI_CI NEWDELHI_DP NEWDELHI_POCI REUNION_LAT REUNION_LON REUNION_TYPE REUNION_WIND REUNION_PRES REUNION_TNUM REUNION_CI REUNION_RMW REUNION_R34_NE REUNION_R34_SE REUNION_R34_SW REUNION_R34_NW REUNION_R50_NE REUNION_R50_SE REUNION_R50_SW REUNION_R50_NW REUNION_R64_NE REUNION_R64_SE REUNION_R64_SW REUNION_R64_NW BOM_LAT BOM_LON BOM_TYPE BOM_WIND BOM_PRES BOM_TNUM BOM_CI BOM_RMW BOM_R34_NE BOM_R34_SE BOM_R34_SW BOM_R34_NW BOM_R50_NE BOM_R50_SE BOM_R50_SW BOM_R50_NW BOM_R64_NE BOM_R64_SE BOM_R64_SW BOM_R64_NW BOM_ROCI BOM_POCI BOM_EYE BOM_POS_METHOD BOM_PRES_METHOD NADI_LAT NADI_LON NADI_CAT NADI_WIND NADI_PRES WELLINGTON_LAT WELLINGTON_LON WELLINGTON_WIND WELLINGTON_PRES DS824_LAT DS824_LON DS824_STAGE DS824_WIND DS824_PRES TD9636_LAT TD9636_LON TD9636_STAGE TD9636_WIND TD9636_PRES TD9635_LAT TD9635_LON TD9635_WIND TD9635_PRES TD9635_ROCI NEUMANN_LAT NEUMANN_LON NEUMANN_CLASS NEUMANN_WIND NEUMANN_PRES MLC_LAT MLC_LON MLC_CLASS MLC_WIND MLC_PRES USA_GUST BOM_GUST BOM_GUST_PER REUNION_GUST REUNION_GUST_PER USA_SEAHGT USA_SEARAD_NE USA_SEARAD_SE USA_SEARAD_SW USA_SEARAD_NW STORM_SPEED STORM_DIR
1922045S21157 1922 16 SP EA NOT_NAMED 1922-02-13 21:00:00 NR -21.4719 156.794 spur-other 513 513 ______________ -1 1 135
1922045S21157 1922 16 SP EA NOT_NAMED 1922-02-13 23:00:00 NR -21.5000 156.800 spur-other 513 513 __________O___ -1 -21.5000 156.800 7 1 0
1922045S21157 1922 16 SP EA NOT_NAMED 1922-02-14 00:00:00 NR -21.5183 156.805 spur-other 513 505 __________P___ -1 -21.5300 156.812 7 1 162
1922045S21157 1922 16 SP EA NOT_NAMED 1922-02-14 03:00:00 NR -21.5842 156.825 spur-other 505 497 __________P___ -1 -21.6178 156.845 7 2 166
1922045S21157 1922 16 SP EA NOT_NAMED 1922-02-14 06:00:00 NR -21.6618 156.852 spur-other 505 505 __________P___ -1 -21.6981 156.873 7 2 163
1922045S21157 1922 16 SP EA NOT_NAMED 1922-02-14 09:00:00 NR -21.7448 156.881 spur-other 505 497 __________P___ -1 -21.7653 156.893 7 2 166
1922045S21157 1922 16 SP EA NOT_NAMED 1922-02-14 11:00:00 NR -21.8000 156.900 spur-other 497 497 __________O___ -1 -21.8000 156.900 7 1 0
1922045S21157 1922 16 SP EA NOT_NAMED 1922-02-14 12:00:00 NR -21.8139 156.901 spur-other 497 497 __________P___ -1 -21.8139 156.901 7 1 156
1922045S21157 1922 16 SP EA NOT_NAMED 1922-02-14 15:00:00 NR -21.8510 156.901 spur-other 489 489 __________P___ -1 -21.8510 156.901 7 1 157
1922045S21157 1922 16 SP EA NOT_NAMED 1922-02-14 16:00:00 NR -21.8653 156.902 spur-other 489 489 __________P___ -1 -21.8653 156.902 7 1 159
1922045S21157 1922 16 SP EA NOT_NAMED 1922-02-14 18:00:00 NR -21.9032 156.911 spur-other 489 482 __________P___ -1 -21.9032 156.911 7 2 166
1922045S21157 1922 16 SP EA NOT_NAMED 1922-02-14 21:00:00 NR -21.9985 156.949 spur-other 482 482 __________P___ -1 -21.9985 156.949 7 3 157
1922045S21157 1922 16 SP EA NOT_NAMED 1922-02-14 23:00:00 NR -22.1000 157.000 spur-other 483 476 __________O___ -1 -22.1000 157.000 7 4 159
1922045S21157 1922 16 SP EA NOT_NAMED 1922-02-15 00:00:00 NR -22.1673 157.027 spur-other 476 470 __________P___ -1 -22.1673 157.027 7 5 159
1922045S21157 1922 16 SP EA NOT_NAMED 1922-02-15 03:00:00 NR -22.4177 157.138 spur-other 470 466 __________P___ -1 -22.4177 157.138 7 6 156
1922045S21157 1922 16 SP EA NOT_NAMED 1922-02-15 06:00:00 NR -22.7240 157.298 spur-other 469 462 __________P___ -1 -22.7240 157.298 7 7 152
1922045S21157 1922 16 SP EA NOT_NAMED 1922-02-15 09:00:00 NR -23.0646 157.517 spur-other 466 466 __________P___ -1 -23.0646 157.517 7 8 147
1922045S21157 1922 16 SP EA NOT_NAMED 1922-02-15 11:00:00 NR -23.3000 157.700 spur-other 475 471 __________O___ -1 -23.3000 157.700 7 9 142
1922045S21157 1922 16 SP EA NOT_NAMED 1922-02-15 12:00:00 NR -23.4027 157.802 spur-other 480 480 __________P___ -1 -23.4179 157.804 7 9 135
1922045S21157 1922 16 SP EA NOT_NAMED 1922-02-15 15:00:00 NR -23.7186 158.157 spur-other 507 503 __________P___ -1 -23.7702 158.158 7 10 133
1922045S21157 1922 16 SP EA NOT_NAMED 1922-02-15 18:00:00 NR -24.0560 158.567 spur-other 535 535 __________P___ -1 -24.1204 158.562 7 11 132
1922045S21157 1922 16 SP EA NOT_NAMED 1922-02-15 21:00:00 NR -24.4273 159.005 spur-other 569 569 __________P___ -1 -24.4687 158.999 7 11 134
1922045S21157 1922 16 SP EA NOT_NAMED 1922-02-15 23:00:00 NR -24.7000 159.300 spur-other 595 595 __________O___ -1 -24.7000 159.300 7 12 138
1922045S21157 1922 16 SP EA NOT_NAMED 1922-02-16 00:00:00 NR -24.8599 159.436 spur-other 604 604 ______________ -1 7 13 144
1922045S21157 1922 16 SP EA NOT_NAMED 1922-02-16 03:00:00 NR -25.3785 159.847 spur-other 644 644 ______________ -1 7 13 144
1922045S21157 1922 16 SP MM NOT_NAMED 1922-02-16 06:00:00 NR -25.9140 160.268 spur-other 687 ______________ -1 7 13 145

デジタル台風データ・検索

IBTrACS Databaseについて

本データベースは、米国NOAAが公開する1842年以降の世界の熱帯低気圧のベストトラックデータアーカイブInternational Best Track Archive for Climate Stewardship (IBTrACS)を、ウェブで閲覧しやすい形式に変換したものです。

最終更新日:2021-12-06